sensor_id;sensor_type;location;lat;lon;timestamp;P1;durP1;ratioP1;P2;durP2;ratioP2
61869;SDS011;47810;42.264;23.826;2022-07-25T00:00:53;22.92;;;9.90;;
61869;SDS011;47810;42.264;23.826;2022-07-25T00:03:20;16.60;;;9.13;;
61869;SDS011;47810;42.264;23.826;2022-07-25T00:05:47;16.00;;;8.65;;
61869;SDS011;47810;42.264;23.826;2022-07-25T00:08:12;15.07;;;8.40;;
61869;SDS011;47810;42.264;23.826;2022-07-25T00:10:38;15.07;;;8.10;;
61869;SDS011;47810;42.264;23.826;2022-07-25T00:13:04;16.23;;;9.07;;
61869;SDS011;47810;42.264;23.826;2022-07-25T00:15:30;15.18;;;8.10;;
61869;SDS011;47810;42.264;23.826;2022-07-25T00:17:55;14.20;;;7.78;;
61869;SDS011;47810;42.264;23.826;2022-07-25T00:20:21;14.88;;;7.50;;
61869;SDS011;47810;42.264;23.826;2022-07-25T00:22:47;13.27;;;6.97;;
61869;SDS011;47810;42.264;23.826;2022-07-25T00:25:13;13.45;;;7.30;;
61869;SDS011;47810;42.264;23.826;2022-07-25T00:27:39;14.07;;;7.65;;
61869;SDS011;47810;42.264;23.826;2022-07-25T00:30:05;13.82;;;6.70;;
61869;SDS011;47810;42.264;23.826;2022-07-25T00:32:31;12.07;;;6.47;;
61869;SDS011;47810;42.264;23.826;2022-07-25T00:34:58;12.05;;;6.88;;
61869;SDS011;47810;42.264;23.826;2022-07-25T00:37:24;13.10;;;6.88;;
61869;SDS011;47810;42.264;23.826;2022-07-25T00:39:49;15.60;;;8.48;;
61869;SDS011;47810;42.264;23.826;2022-07-25T00:42:16;16.52;;;9.40;;
61869;SDS011;47810;42.264;23.826;2022-07-25T00:44:42;15.93;;;9.23;;
61869;SDS011;47810;42.264;23.826;2022-07-25T00:47:08;18.63;;;10.82;;
61869;SDS011;47810;42.264;23.826;2022-07-25T00:49:34;17.15;;;9.25;;
61869;SDS011;47810;42.264;23.826;2022-07-25T00:51:59;19.58;;;10.25;;
61869;SDS011;47810;42.264;23.826;2022-07-25T00:54:25;18.83;;;10.60;;
61869;SDS011;47810;42.264;23.826;2022-07-25T00:56:51;16.90;;;8.93;;
61869;SDS011;47810;42.264;23.826;2022-07-25T00:59:18;14.77;;;8.43;;
61869;SDS011;47810;42.264;23.826;2022-07-25T01:01:45;14.15;;;7.82;;
61869;SDS011;47810;42.264;23.826;2022-07-25T01:04:12;14.05;;;7.85;;
61869;SDS011;47810;42.264;23.826;2022-07-25T01:06:39;14.45;;;7.80;;
61869;SDS011;47810;42.264;23.826;2022-07-25T01:09:05;13.10;;;7.65;;
61869;SDS011;47810;42.264;23.826;2022-07-25T01:11:31;13.65;;;7.88;;
61869;SDS011;47810;42.264;23.826;2022-07-25T01:13:58;15.63;;;8.63;;
61869;SDS011;47810;42.264;23.826;2022-07-25T01:16:24;14.40;;;7.55;;
61869;SDS011;47810;42.264;23.826;2022-07-25T01:18:51;14.32;;;8.00;;
61869;SDS011;47810;42.264;23.826;2022-07-25T01:21:16;15.80;;;7.43;;
61869;SDS011;47810;42.264;23.826;2022-07-25T01:23:42;14.55;;;8.20;;
61869;SDS011;47810;42.264;23.826;2022-07-25T01:26:08;17.17;;;9.07;;
61869;SDS011;47810;42.264;23.826;2022-07-25T01:28:34;16.52;;;8.93;;
61869;SDS011;47810;42.264;23.826;2022-07-25T01:31:01;16.85;;;9.57;;
61869;SDS011;47810;42.264;23.826;2022-07-25T01:33:27;16.52;;;9.30;;
61869;SDS011;47810;42.264;23.826;2022-07-25T01:35:53;16.58;;;9.23;;
61869;SDS011;47810;42.264;23.826;2022-07-25T01:38:19;16.77;;;9.65;;
61869;SDS011;47810;42.264;23.826;2022-07-25T01:40:44;17.13;;;10.15;;
61869;SDS011;47810;42.264;23.826;2022-07-25T01:43:11;17.23;;;9.90;;
61869;SDS011;47810;42.264;23.826;2022-07-25T01:45:39;19.25;;;9.88;;
61869;SDS011;47810;42.264;23.826;2022-07-25T01:48:05;16.35;;;9.45;;
61869;SDS011;47810;42.264;23.826;2022-07-25T01:50:31;18.20;;;9.07;;
61869;SDS011;47810;42.264;23.826;2022-07-25T01:52:56;16.25;;;9.65;;
61869;SDS011;47810;42.264;23.826;2022-07-25T01:55:22;16.13;;;9.55;;
61869;SDS011;47810;42.264;23.826;2022-07-25T01:57:48;16.63;;;9.10;;
61869;SDS011;47810;42.264;23.826;2022-07-25T02:00:14;17.23;;;9.50;;
61869;SDS011;47810;42.264;23.826;2022-07-25T02:02:41;16.55;;;9.75;;
61869;SDS011;47810;42.264;23.826;2022-07-25T02:05:08;16.48;;;9.50;;
61869;SDS011;47810;42.264;23.826;2022-07-25T02:07:35;16.27;;;9.70;;
61869;SDS011;47810;42.264;23.826;2022-07-25T02:10:03;18.33;;;9.85;;
61869;SDS011;47810;42.264;23.826;2022-07-25T02:12:30;17.70;;;9.80;;
61869;SDS011;47810;42.264;23.826;2022-07-25T02:14:57;16.85;;;10.07;;
61869;SDS011;47810;42.264;23.826;2022-07-25T02:17:23;16.40;;;9.75;;
61869;SDS011;47810;42.264;23.826;2022-07-25T02:19:50;17.90;;;10.02;;
61869;SDS011;47810;42.264;23.826;2022-07-25T02:22:15;17.00;;;10.18;;
61869;SDS011;47810;42.264;23.826;2022-07-25T02:24:41;17.08;;;10.43;;
61869;SDS011;47810;42.264;23.826;2022-07-25T02:27:07;17.10;;;10.18;;
61869;SDS011;47810;42.264;23.826;2022-07-25T02:29:34;19.65;;;11.05;;
61869;SDS011;47810;42.264;23.826;2022-07-25T02:32:00;16.55;;;8.95;;
61869;SDS011;47810;42.264;23.826;2022-07-25T02:34:26;16.55;;;9.57;;
61869;SDS011;47810;42.264;23.826;2022-07-25T02:36:52;18.17;;;10.60;;
61869;SDS011;47810;42.264;23.826;2022-07-25T02:39:18;17.83;;;10.32;;
61869;SDS011;47810;42.264;23.826;2022-07-25T02:41:46;19.73;;;10.68;;
61869;SDS011;47810;42.264;23.826;2022-07-25T02:44:12;17.40;;;10.93;;
61869;SDS011;47810;42.264;23.826;2022-07-25T02:46:38;16.67;;;10.30;;
61869;SDS011;47810;42.264;23.826;2022-07-25T02:49:04;18.90;;;10.30;;
61869;SDS011;47810;42.264;23.826;2022-07-25T02:51:30;20.75;;;10.77;;
61869;SDS011;47810;42.264;23.826;2022-07-25T02:53:55;19.65;;;10.40;;
61869;SDS011;47810;42.264;23.826;2022-07-25T02:56:23;18.50;;;11.10;;
61869;SDS011;47810;42.264;23.826;2022-07-25T02:58:51;15.98;;;9.13;;
61869;SDS011;47810;42.264;23.826;2022-07-25T03:01:16;18.13;;;10.48;;
61869;SDS011;47810;42.264;23.826;2022-07-25T03:03:42;19.15;;;11.02;;
61869;SDS011;47810;42.264;23.826;2022-07-25T03:06:09;17.95;;;10.18;;
61869;SDS011;47810;42.264;23.826;2022-07-25T03:08:35;18.33;;;10.30;;
61869;SDS011;47810;42.264;23.826;2022-07-25T03:11:00;17.67;;;10.50;;
61869;SDS011;47810;42.264;23.826;2022-07-25T03:13:27;19.08;;;10.38;;
61869;SDS011;47810;42.264;23.826;2022-07-25T03:15:53;18.35;;;10.35;;
61869;SDS011;47810;42.264;23.826;2022-07-25T03:18:18;18.13;;;10.65;;
61869;SDS011;47810;42.264;23.826;2022-07-25T03:20:46;19.63;;;11.40;;
61869;SDS011;47810;42.264;23.826;2022-07-25T03:23:14;19.20;;;10.93;;
61869;SDS011;47810;42.264;23.826;2022-07-25T03:25:40;19.02;;;11.02;;
61869;SDS011;47810;42.264;23.826;2022-07-25T03:28:05;20.25;;;11.02;;
61869;SDS011;47810;42.264;23.826;2022-07-25T03:30:31;19.65;;;11.63;;
61869;SDS011;47810;42.264;23.826;2022-07-25T03:32:57;19.95;;;11.75;;
61869;SDS011;47810;42.264;23.826;2022-07-25T03:35:24;18.85;;;10.88;;
61869;SDS011;47810;42.264;23.826;2022-07-25T03:37:50;19.70;;;10.82;;
61869;SDS011;47810;42.264;23.826;2022-07-25T03:40:16;31.48;;;19.23;;
61869;SDS011;47810;42.264;23.826;2022-07-25T03:42:42;21.25;;;12.85;;
61869;SDS011;47810;42.264;23.826;2022-07-25T03:45:08;22.55;;;11.98;;
61869;SDS011;47810;42.264;23.826;2022-07-25T03:47:34;23.42;;;12.05;;
61869;SDS011;47810;42.264;23.826;2022-07-25T03:50:00;20.00;;;10.73;;
61869;SDS011;47810;42.264;23.826;2022-07-25T03:52:25;20.10;;;11.60;;
61869;SDS011;47810;42.264;23.826;2022-07-25T03:54:53;20.33;;;11.63;;
61869;SDS011;47810;42.264;23.826;2022-07-25T03:57:19;20.17;;;12.23;;
61869;SDS011;47810;42.264;23.826;2022-07-25T03:59:46;18.90;;;10.93;;
61869;SDS011;47810;42.264;23.826;2022-07-25T04:02:17;15.98;;;9.23;;
61869;SDS011;47810;42.264;23.826;2022-07-25T04:04:43;17.00;;;10.02;;
61869;SDS011;47810;42.264;23.826;2022-07-25T04:07:09;17.30;;;8.75;;
61869;SDS011;47810;42.264;23.826;2022-07-25T04:09:35;16.45;;;8.82;;
61869;SDS011;47810;42.264;23.826;2022-07-25T04:12:01;16.38;;;8.95;;
61869;SDS011;47810;42.264;23.826;2022-07-25T04:14:27;19.98;;;11.80;;
61869;SDS011;47810;42.264;23.826;2022-07-25T04:16:55;20.02;;;11.93;;
61869;SDS011;47810;42.264;23.826;2022-07-25T04:19:20;18.92;;;11.88;;
61869;SDS011;47810;42.264;23.826;2022-07-25T04:21:46;19.20;;;11.30;;
61869;SDS011;47810;42.264;23.826;2022-07-25T04:24:12;18.42;;;11.13;;
61869;SDS011;47810;42.264;23.826;2022-07-25T04:26:38;20.88;;;10.73;;
61869;SDS011;47810;42.264;23.826;2022-07-25T04:29:03;16.63;;;9.30;;
61869;SDS011;47810;42.264;23.826;2022-07-25T04:31:29;16.73;;;8.68;;
61869;SDS011;47810;42.264;23.826;2022-07-25T04:33:56;14.68;;;8.07;;
61869;SDS011;47810;42.264;23.826;2022-07-25T04:36:30;14.88;;;8.13;;
61869;SDS011;47810;42.264;23.826;2022-07-25T04:38:58;15.00;;;8.05;;
61869;SDS011;47810;42.264;23.826;2022-07-25T04:41:24;16.23;;;8.52;;
61869;SDS011;47810;42.264;23.826;2022-07-25T04:43:50;16.65;;;9.13;;
61869;SDS011;47810;42.264;23.826;2022-07-25T04:46:20;15.65;;;8.20;;
61869;SDS011;47810;42.264;23.826;2022-07-25T04:48:46;14.97;;;7.73;;
61869;SDS011;47810;42.264;23.826;2022-07-25T04:51:17;13.23;;;7.85;;
61869;SDS011;47810;42.264;23.826;2022-07-25T04:53:45;12.20;;;7.75;;
61869;SDS011;47810;42.264;23.826;2022-07-25T04:56:14;16.90;;;8.43;;
61869;SDS011;47810;42.264;23.826;2022-07-25T04:58:41;13.13;;;7.07;;
61869;SDS011;47810;42.264;23.826;2022-07-25T05:01:08;13.73;;;7.75;;
61869;SDS011;47810;42.264;23.826;2022-07-25T05:03:35;12.20;;;7.50;;
61869;SDS011;47810;42.264;23.826;2022-07-25T05:06:01;16.83;;;7.53;;
61869;SDS011;47810;42.264;23.826;2022-07-25T05:08:28;12.57;;;7.65;;
61869;SDS011;47810;42.264;23.826;2022-07-25T05:10:55;12.43;;;7.38;;
61869;SDS011;47810;42.264;23.826;2022-07-25T05:13:21;13.30;;;7.13;;
61869;SDS011;47810;42.264;23.826;2022-07-25T05:15:47;15.45;;;7.63;;
61869;SDS011;47810;42.264;23.826;2022-07-25T05:18:13;17.15;;;7.90;;
61869;SDS011;47810;42.264;23.826;2022-07-25T05:20:39;18.95;;;9.55;;
61869;SDS011;47810;42.264;23.826;2022-07-25T05:25:37;15.73;;;8.35;;
61869;SDS011;47810;42.264;23.826;2022-07-25T05:28:04;13.20;;;7.07;;
61869;SDS011;47810;42.264;23.826;2022-07-25T05:30:32;13.50;;;7.40;;
61869;SDS011;47810;42.264;23.826;2022-07-25T05:32:58;11.77;;;7.05;;
61869;SDS011;47810;42.264;23.826;2022-07-25T05:35:25;12.77;;;7.40;;
61869;SDS011;47810;42.264;23.826;2022-07-25T05:43:06;12.55;;;6.90;;
61869;SDS011;47810;42.264;23.826;2022-07-25T05:45:34;12.50;;;7.22;;
61869;SDS011;47810;42.264;23.826;2022-07-25T05:48:03;15.48;;;7.78;;
61869;SDS011;47810;42.264;23.826;2022-07-25T05:50:38;12.50;;;7.20;;
61869;SDS011;47810;42.264;23.826;2022-07-25T05:58:06;15.02;;;8.23;;
61869;SDS011;47810;42.264;23.826;2022-07-25T06:03:04;11.27;;;6.80;;
61869;SDS011;47810;42.264;23.826;2022-07-25T06:05:30;12.80;;;7.43;;
61869;SDS011;47810;42.264;23.826;2022-07-25T06:10:50;12.88;;;7.53;;
61869;SDS011;47810;42.264;23.826;2022-07-25T06:13:16;11.80;;;6.97;;
61869;SDS011;47810;42.264;23.826;2022-07-25T06:15:49;13.10;;;7.35;;
61869;SDS011;47810;42.264;23.826;2022-07-25T06:18:22;13.98;;;6.90;;
61869;SDS011;47810;42.264;23.826;2022-07-25T06:20:58;13.40;;;7.13;;
61869;SDS011;47810;42.264;23.826;2022-07-25T06:23:25;16.23;;;8.20;;
61869;SDS011;47810;42.264;23.826;2022-07-25T06:25:56;11.13;;;6.93;;
61869;SDS011;47810;42.264;23.826;2022-07-25T06:31:00;13.80;;;7.07;;
61869;SDS011;47810;42.264;23.826;2022-07-25T06:33:25;11.82;;;7.15;;
61869;SDS011;47810;42.264;23.826;2022-07-25T06:35:52;15.55;;;7.80;;
61869;SDS011;47810;42.264;23.826;2022-07-25T06:38:27;11.50;;;7.20;;
61869;SDS011;47810;42.264;23.826;2022-07-25T06:40:53;13.75;;;7.70;;
61869;SDS011;47810;42.264;23.826;2022-07-25T06:43:19;11.60;;;6.43;;
61869;SDS011;47810;42.264;23.826;2022-07-25T06:45:46;12.00;;;6.95;;
61869;SDS011;47810;42.264;23.826;2022-07-25T06:48:13;11.07;;;6.75;;
61869;SDS011;47810;42.264;23.826;2022-07-25T06:50:42;13.27;;;6.88;;
61869;SDS011;47810;42.264;23.826;2022-07-25T06:53:09;12.25;;;7.35;;
61869;SDS011;47810;42.264;23.826;2022-07-25T06:55:37;11.57;;;6.88;;
61869;SDS011;47810;42.264;23.826;2022-07-25T06:58:02;13.23;;;7.28;;
61869;SDS011;47810;42.264;23.826;2022-07-25T07:00:30;11.25;;;7.28;;
61869;SDS011;47810;42.264;23.826;2022-07-25T07:02:58;12.73;;;6.97;;
61869;SDS011;47810;42.264;23.826;2022-07-25T07:05:30;11.93;;;7.20;;
61869;SDS011;47810;42.264;23.826;2022-07-25T07:07:57;12.20;;;7.35;;
61869;SDS011;47810;42.264;23.826;2022-07-25T07:10:24;11.55;;;7.10;;
61869;SDS011;47810;42.264;23.826;2022-07-25T07:12:54;12.73;;;7.68;;
61869;SDS011;47810;42.264;23.826;2022-07-25T07:15:30;13.63;;;7.80;;
61869;SDS011;47810;42.264;23.826;2022-07-25T07:17:56;11.25;;;6.63;;
61869;SDS011;47810;42.264;23.826;2022-07-25T07:20:22;13.13;;;7.20;;
61869;SDS011;47810;42.264;23.826;2022-07-25T07:22:48;12.00;;;7.00;;
61869;SDS011;47810;42.264;23.826;2022-07-25T07:25:15;11.18;;;6.82;;
61869;SDS011;47810;42.264;23.826;2022-07-25T07:27:48;10.98;;;6.72;;
61869;SDS011;47810;42.264;23.826;2022-07-25T07:30:16;11.75;;;6.95;;
61869;SDS011;47810;42.264;23.826;2022-07-25T07:32:42;11.35;;;7.07;;
61869;SDS011;47810;42.264;23.826;2022-07-25T07:35:08;12.98;;;7.32;;
61869;SDS011;47810;42.264;23.826;2022-07-25T07:37:36;13.65;;;8.05;;
61869;SDS011;47810;42.264;23.826;2022-07-25T07:40:04;13.23;;;7.20;;
61869;SDS011;47810;42.264;23.826;2022-07-25T07:45:15;13.23;;;7.38;;
61869;SDS011;47810;42.264;23.826;2022-07-25T07:50:15;13.45;;;7.60;;
61869;SDS011;47810;42.264;23.826;2022-07-25T07:52:45;13.02;;;6.97;;
61869;SDS011;47810;42.264;23.826;2022-07-25T07:55:11;14.27;;;7.53;;
61869;SDS011;47810;42.264;23.826;2022-07-25T07:57:58;10.68;;;7.05;;
61869;SDS011;47810;42.264;23.826;2022-07-25T08:00:24;12.45;;;7.57;;
61869;SDS011;47810;42.264;23.826;2022-07-25T08:02:56;13.00;;;7.55;;
61869;SDS011;47810;42.264;23.826;2022-07-25T08:05:27;11.38;;;7.20;;
61869;SDS011;47810;42.264;23.826;2022-07-25T08:07:56;11.10;;;7.03;;
61869;SDS011;47810;42.264;23.826;2022-07-25T08:10:24;11.48;;;7.03;;
61869;SDS011;47810;42.264;23.826;2022-07-25T08:12:52;11.23;;;7.40;;
61869;SDS011;47810;42.264;23.826;2022-07-25T08:15:19;10.52;;;6.85;;
61869;SDS011;47810;42.264;23.826;2022-07-25T08:17:47;11.13;;;7.10;;
61869;SDS011;47810;42.264;23.826;2022-07-25T08:20:16;10.13;;;6.45;;
61869;SDS011;47810;42.264;23.826;2022-07-25T08:22:47;12.48;;;6.88;;
61869;SDS011;47810;42.264;23.826;2022-07-25T08:25:18;11.60;;;6.30;;
61869;SDS011;47810;42.264;23.826;2022-07-25T08:27:46;10.40;;;6.70;;
61869;SDS011;47810;42.264;23.826;2022-07-25T08:30:20;11.05;;;6.65;;
61869;SDS011;47810;42.264;23.826;2022-07-25T08:32:53;11.30;;;6.68;;
61869;SDS011;47810;42.264;23.826;2022-07-25T08:35:20;9.55;;;6.05;;
61869;SDS011;47810;42.264;23.826;2022-07-25T08:37:57;9.57;;;6.35;;
61869;SDS011;47810;42.264;23.826;2022-07-25T08:40:25;9.38;;;6.30;;
61869;SDS011;47810;42.264;23.826;2022-07-25T08:42:52;9.30;;;6.20;;
61869;SDS011;47810;42.264;23.826;2022-07-25T08:50:21;9.85;;;6.35;;
61869;SDS011;47810;42.264;23.826;2022-07-25T08:52:53;9.55;;;6.35;;
61869;SDS011;47810;42.264;23.826;2022-07-25T08:55:21;9.75;;;6.53;;
61869;SDS011;47810;42.264;23.826;2022-07-25T08:57:49;10.52;;;6.38;;
61869;SDS011;47810;42.264;23.826;2022-07-25T09:00:25;11.13;;;7.30;;
61869;SDS011;47810;42.264;23.826;2022-07-25T09:02:58;10.25;;;6.93;;
61869;SDS011;47810;42.264;23.826;2022-07-25T09:05:31;11.35;;;6.78;;
61869;SDS011;47810;42.264;23.826;2022-07-25T09:08:05;13.07;;;6.63;;
61869;SDS011;47810;42.264;23.826;2022-07-25T09:10:37;9.93;;;6.43;;
61869;SDS011;47810;42.264;23.826;2022-07-25T09:13:06;9.38;;;6.18;;
61869;SDS011;47810;42.264;23.826;2022-07-25T09:15:44;10.88;;;6.50;;
61869;SDS011;47810;42.264;23.826;2022-07-25T09:18:14;11.18;;;7.07;;
61869;SDS011;47810;42.264;23.826;2022-07-25T09:20:52;10.02;;;6.75;;
61869;SDS011;47810;42.264;23.826;2022-07-25T09:23:27;9.30;;;5.93;;
61869;SDS011;47810;42.264;23.826;2022-07-25T09:26:04;10.27;;;6.20;;
61869;SDS011;47810;42.264;23.826;2022-07-25T09:28:42;12.38;;;7.00;;
61869;SDS011;47810;42.264;23.826;2022-07-25T09:31:30;8.65;;;6.40;;
61869;SDS011;47810;42.264;23.826;2022-07-25T09:34:01;10.35;;;5.82;;
61869;SDS011;47810;42.264;23.826;2022-07-25T09:36:32;9.50;;;6.30;;
61869;SDS011;47810;42.264;23.826;2022-07-25T09:39:00;8.68;;;5.95;;
61869;SDS011;47810;42.264;23.826;2022-07-25T09:41:32;9.10;;;6.43;;
61869;SDS011;47810;42.264;23.826;2022-07-25T09:44:02;9.68;;;6.43;;
61869;SDS011;47810;42.264;23.826;2022-07-25T09:46:42;8.57;;;6.25;;
61869;SDS011;47810;42.264;23.826;2022-07-25T09:49:08;9.68;;;6.35;;
61869;SDS011;47810;42.264;23.826;2022-07-25T09:51:40;9.60;;;6.30;;
61869;SDS011;47810;42.264;23.826;2022-07-25T09:54:08;9.88;;;6.50;;
61869;SDS011;47810;42.264;23.826;2022-07-25T09:56:34;8.82;;;6.22;;
61869;SDS011;47810;42.264;23.826;2022-07-25T09:59:00;8.63;;;5.43;;
61869;SDS011;47810;42.264;23.826;2022-07-25T10:01:28;9.10;;;6.07;;
61869;SDS011;47810;42.264;23.826;2022-07-25T10:04:25;8.68;;;6.22;;
61869;SDS011;47810;42.264;23.826;2022-07-25T10:07:06;10.55;;;6.20;;
61869;SDS011;47810;42.264;23.826;2022-07-25T10:09:40;8.95;;;5.88;;
61869;SDS011;47810;42.264;23.826;2022-07-25T10:12:10;7.50;;;5.55;;
61869;SDS011;47810;42.264;23.826;2022-07-25T10:14:39;7.88;;;5.45;;
61869;SDS011;47810;42.264;23.826;2022-07-25T10:17:05;8.80;;;5.22;;
61869;SDS011;47810;42.264;23.826;2022-07-25T10:22:09;10.13;;;5.72;;
61869;SDS011;47810;42.264;23.826;2022-07-25T10:24:37;7.63;;;5.43;;
61869;SDS011;47810;42.264;23.826;2022-07-25T10:27:08;6.45;;;4.70;;
61869;SDS011;47810;42.264;23.826;2022-07-25T10:29:40;7.45;;;5.03;;
61869;SDS011;47810;42.264;23.826;2022-07-25T10:32:11;6.82;;;4.82;;
61869;SDS011;47810;42.264;23.826;2022-07-25T10:34:38;7.35;;;5.43;;
61869;SDS011;47810;42.264;23.826;2022-07-25T10:37:16;9.40;;;5.30;;
61869;SDS011;47810;42.264;23.826;2022-07-25T10:39:47;9.30;;;6.05;;
61869;SDS011;47810;42.264;23.826;2022-07-25T10:42:14;11.27;;;5.57;;
61869;SDS011;47810;42.264;23.826;2022-07-25T10:44:44;7.55;;;5.45;;
61869;SDS011;47810;42.264;23.826;2022-07-25T10:47:14;9.13;;;5.53;;
61869;SDS011;47810;42.264;23.826;2022-07-25T10:49:42;7.45;;;5.15;;
61869;SDS011;47810;42.264;23.826;2022-07-25T10:52:15;7.65;;;5.13;;
61869;SDS011;47810;42.264;23.826;2022-07-25T10:54:53;6.35;;;4.68;;
61869;SDS011;47810;42.264;23.826;2022-07-25T10:57:22;7.78;;;5.15;;
61869;SDS011;47810;42.264;23.826;2022-07-25T11:03:43;9.25;;;6.32;;
61869;SDS011;47810;42.264;23.826;2022-07-25T11:06:13;10.15;;;6.28;;
61869;SDS011;47810;42.264;23.826;2022-07-25T11:08:42;9.00;;;5.90;;
61869;SDS011;47810;42.264;23.826;2022-07-25T11:11:09;8.07;;;5.93;;
61869;SDS011;47810;42.264;23.826;2022-07-25T11:13:36;8.95;;;6.15;;
61869;SDS011;47810;42.264;23.826;2022-07-25T11:16:03;10.20;;;6.25;;
61869;SDS011;47810;42.264;23.826;2022-07-25T11:18:30;8.25;;;5.95;;
61869;SDS011;47810;42.264;23.826;2022-07-25T11:21:06;8.70;;;6.00;;
61869;SDS011;47810;42.264;23.826;2022-07-25T11:23:33;10.68;;;6.38;;
61869;SDS011;47810;42.264;23.826;2022-07-25T11:26:10;9.07;;;6.32;;
61869;SDS011;47810;42.264;23.826;2022-07-25T11:28:38;9.60;;;6.43;;
61869;SDS011;47810;42.264;23.826;2022-07-25T11:31:05;9.63;;;6.50;;
61869;SDS011;47810;42.264;23.826;2022-07-25T11:33:31;10.13;;;6.72;;
61869;SDS011;47810;42.264;23.826;2022-07-25T11:36:00;9.40;;;5.80;;
61869;SDS011;47810;42.264;23.826;2022-07-25T11:38:26;8.43;;;6.00;;
61869;SDS011;47810;42.264;23.826;2022-07-25T11:40:53;9.65;;;6.45;;
61869;SDS011;47810;42.264;23.826;2022-07-25T11:43:20;10.55;;;6.65;;
61869;SDS011;47810;42.264;23.826;2022-07-25T11:48:35;11.27;;;6.65;;
61869;SDS011;47810;42.264;23.826;2022-07-25T11:51:20;9.05;;;6.60;;
61869;SDS011;47810;42.264;23.826;2022-07-25T11:53:48;9.07;;;6.30;;
61869;SDS011;47810;42.264;23.826;2022-07-25T11:56:19;8.73;;;6.05;;
61869;SDS011;47810;42.264;23.826;2022-07-25T11:58:59;10.23;;;6.40;;
61869;SDS011;47810;42.264;23.826;2022-07-25T12:01:32;8.63;;;6.35;;
61869;SDS011;47810;42.264;23.826;2022-07-25T12:04:06;11.23;;;6.93;;
61869;SDS011;47810;42.264;23.826;2022-07-25T12:06:33;10.93;;;7.22;;
61869;SDS011;47810;42.264;23.826;2022-07-25T12:09:08;9.18;;;6.15;;
61869;SDS011;47810;42.264;23.826;2022-07-25T12:11:35;10.82;;;6.38;;
61869;SDS011;47810;42.264;23.826;2022-07-25T12:14:02;13.45;;;6.82;;
61869;SDS011;47810;42.264;23.826;2022-07-25T12:16:30;9.40;;;6.13;;
61869;SDS011;47810;42.264;23.826;2022-07-25T12:21:27;10.25;;;7.15;;
61869;SDS011;47810;42.264;23.826;2022-07-25T12:23:53;10.13;;;5.97;;
61869;SDS011;47810;42.264;23.826;2022-07-25T12:26:19;9.85;;;6.82;;
61869;SDS011;47810;42.264;23.826;2022-07-25T12:28:45;9.32;;;6.78;;
61869;SDS011;47810;42.264;23.826;2022-07-25T12:31:11;11.85;;;7.18;;
61869;SDS011;47810;42.264;23.826;2022-07-25T12:33:37;10.02;;;6.47;;
61869;SDS011;47810;42.264;23.826;2022-07-25T12:36:04;11.05;;;7.10;;
61869;SDS011;47810;42.264;23.826;2022-07-25T12:38:29;11.43;;;7.10;;
61869;SDS011;47810;42.264;23.826;2022-07-25T12:40:55;11.73;;;6.70;;
61869;SDS011;47810;42.264;23.826;2022-07-25T12:43:21;10.43;;;7.00;;
61869;SDS011;47810;42.264;23.826;2022-07-25T12:45:47;12.07;;;6.70;;
61869;SDS011;47810;42.264;23.826;2022-07-25T12:48:14;9.50;;;6.57;;
61869;SDS011;47810;42.264;23.826;2022-07-25T12:50:43;11.38;;;7.20;;
61869;SDS011;47810;42.264;23.826;2022-07-25T12:53:10;10.45;;;7.22;;
61869;SDS011;47810;42.264;23.826;2022-07-25T12:55:37;11.07;;;7.15;;
61869;SDS011;47810;42.264;23.826;2022-07-25T12:58:04;10.45;;;6.78;;
61869;SDS011;47810;42.264;23.826;2022-07-25T13:00:31;8.23;;;6.40;;
61869;SDS011;47810;42.264;23.826;2022-07-25T13:02:56;10.38;;;6.50;;
61869;SDS011;47810;42.264;23.826;2022-07-25T13:05:23;8.98;;;6.32;;
61869;SDS011;47810;42.264;23.826;2022-07-25T13:07:49;8.98;;;6.75;;
61869;SDS011;47810;42.264;23.826;2022-07-25T13:10:17;12.07;;;6.22;;
61869;SDS011;47810;42.264;23.826;2022-07-25T13:12:44;9.07;;;6.32;;
61869;SDS011;47810;42.264;23.826;2022-07-25T13:15:10;10.00;;;6.35;;
61869;SDS011;47810;42.264;23.826;2022-07-25T13:17:36;8.80;;;6.10;;
61869;SDS011;47810;42.264;23.826;2022-07-25T13:20:02;10.90;;;6.22;;
61869;SDS011;47810;42.264;23.826;2022-07-25T13:22:28;8.93;;;6.40;;
61869;SDS011;47810;42.264;23.826;2022-07-25T13:24:54;8.60;;;6.60;;
61869;SDS011;47810;42.264;23.826;2022-07-25T13:27:21;9.73;;;6.00;;
61869;SDS011;47810;42.264;23.826;2022-07-25T13:29:47;8.48;;;6.22;;
61869;SDS011;47810;42.264;23.826;2022-07-25T13:32:18;11.18;;;6.30;;
61869;SDS011;47810;42.264;23.826;2022-07-25T13:34:45;9.95;;;6.53;;
61869;SDS011;47810;42.264;23.826;2022-07-25T13:37:11;8.27;;;5.78;;
61869;SDS011;47810;42.264;23.826;2022-07-25T13:39:38;9.10;;;6.50;;
61869;SDS011;47810;42.264;23.826;2022-07-25T13:42:06;10.63;;;6.30;;
61869;SDS011;47810;42.264;23.826;2022-07-25T13:44:32;9.25;;;6.05;;
61869;SDS011;47810;42.264;23.826;2022-07-25T13:46:58;9.63;;;6.43;;
61869;SDS011;47810;42.264;23.826;2022-07-25T13:49:25;11.07;;;6.47;;
61869;SDS011;47810;42.264;23.826;2022-07-25T13:51:51;10.77;;;6.78;;
61869;SDS011;47810;42.264;23.826;2022-07-25T13:54:16;9.50;;;6.47;;
61869;SDS011;47810;42.264;23.826;2022-07-25T13:56:42;10.05;;;6.07;;
61869;SDS011;47810;42.264;23.826;2022-07-25T13:59:08;9.70;;;6.40;;
61869;SDS011;47810;42.264;23.826;2022-07-25T14:01:34;8.85;;;6.30;;
61869;SDS011;47810;42.264;23.826;2022-07-25T14:04:01;10.07;;;6.30;;
61869;SDS011;47810;42.264;23.826;2022-07-25T14:06:27;9.80;;;6.53;;
61869;SDS011;47810;42.264;23.826;2022-07-25T14:08:53;11.30;;;6.70;;
61869;SDS011;47810;42.264;23.826;2022-07-25T14:11:20;11.13;;;6.45;;
61869;SDS011;47810;42.264;23.826;2022-07-25T14:13:47;9.30;;;6.25;;
61869;SDS011;47810;42.264;23.826;2022-07-25T14:16:13;9.05;;;6.28;;
61869;SDS011;47810;42.264;23.826;2022-07-25T14:18:42;9.63;;;6.55;;
61869;SDS011;47810;42.264;23.826;2022-07-25T14:21:09;10.90;;;6.65;;
61869;SDS011;47810;42.264;23.826;2022-07-25T14:23:35;11.57;;;6.43;;
61869;SDS011;47810;42.264;23.826;2022-07-25T14:26:01;8.60;;;6.10;;
61869;SDS011;47810;42.264;23.826;2022-07-25T14:28:28;10.23;;;6.20;;
61869;SDS011;47810;42.264;23.826;2022-07-25T14:30:53;9.93;;;6.65;;
61869;SDS011;47810;42.264;23.826;2022-07-25T14:33:19;10.50;;;6.28;;
61869;SDS011;47810;42.264;23.826;2022-07-25T14:35:45;13.70;;;7.20;;
61869;SDS011;47810;42.264;23.826;2022-07-25T14:38:11;10.63;;;6.68;;
61869;SDS011;47810;42.264;23.826;2022-07-25T14:40:37;8.88;;;6.50;;
61869;SDS011;47810;42.264;23.826;2022-07-25T14:43:03;10.38;;;6.90;;
61869;SDS011;47810;42.264;23.826;2022-07-25T14:45:28;9.68;;;6.68;;
61869;SDS011;47810;42.264;23.826;2022-07-25T14:47:55;11.15;;;6.47;;
61869;SDS011;47810;42.264;23.826;2022-07-25T14:50:21;14.13;;;6.90;;
61869;SDS011;47810;42.264;23.826;2022-07-25T14:52:48;29.58;;;8.00;;
61869;SDS011;47810;42.264;23.826;2022-07-25T14:55:14;10.23;;;6.30;;
61869;SDS011;47810;42.264;23.826;2022-07-25T14:57:40;12.10;;;6.68;;
61869;SDS011;47810;42.264;23.826;2022-07-25T15:00:08;10.82;;;6.97;;
61869;SDS011;47810;42.264;23.826;2022-07-25T15:02:37;10.82;;;6.53;;
61869;SDS011;47810;42.264;23.826;2022-07-25T15:05:03;10.02;;;6.03;;
61869;SDS011;47810;42.264;23.826;2022-07-25T15:07:29;9.18;;;6.43;;
61869;SDS011;47810;42.264;23.826;2022-07-25T15:09:54;10.05;;;6.50;;